Terminal Aerodrome Forecast
Issued by NWS Missoula, MT

Home | Current Version | Previous Version | Text Only | Print | Product List | Glossary On
Versions: 1 2 3 4 5 6 7 8 9 10 11 12 13
000
FTUS45 KMSO 250500
TAFGPI
TAF
KGPI 250536Z 2506/2606 00000KT P6SM VCSH SCT060 OVC100
     FM252300 03010KT P6SM VCSH BKN060 OVC080
     FM260300 03014KT P6SM -SHRA FEW010 BKN030 OVC050=

USA.gov is the U.S. government's official web portal to all federal, state and local government web resources and services.